sensor_id;sensor_type;location;lat;lon;timestamp;P1;durP1;ratioP1;P2;durP2;ratioP2
15635;SDS011;7917;50.818;6.972;2023-12-20T00:00:15;9.95;;;7.28;;
15635;SDS011;7917;50.818;6.972;2023-12-20T00:02:43;9.13;;;7.65;;
15635;SDS011;7917;50.818;6.972;2023-12-20T00:05:12;11.93;;;7.68;;
15635;SDS011;7917;50.818;6.972;2023-12-20T00:07:39;10.93;;;7.88;;
15635;SDS011;7917;50.818;6.972;2023-12-20T00:10:06;12.77;;;8.82;;
15635;SDS011;7917;50.818;6.972;2023-12-20T00:12:33;13.65;;;8.18;;
15635;SDS011;7917;50.818;6.972;2023-12-20T00:15:00;12.85;;;8.30;;
15635;SDS011;7917;50.818;6.972;2023-12-20T00:17:28;11.80;;;7.90;;
15635;SDS011;7917;50.818;6.972;2023-12-20T00:19:54;11.15;;;7.90;;
15635;SDS011;7917;50.818;6.972;2023-12-20T00:22:20;13.20;;;7.88;;
15635;SDS011;7917;50.818;6.972;2023-12-20T00:24:47;12.25;;;7.07;;
15635;SDS011;7917;50.818;6.972;2023-12-20T00:27:14;11.45;;;8.35;;
15635;SDS011;7917;50.818;6.972;2023-12-20T00:29:40;14.57;;;9.38;;
15635;SDS011;7917;50.818;6.972;2023-12-20T00:32:09;11.88;;;8.70;;
15635;SDS011;7917;50.818;6.972;2023-12-20T00:34:35;12.50;;;8.75;;
15635;SDS011;7917;50.818;6.972;2023-12-20T00:37:01;12.23;;;8.48;;
15635;SDS011;7917;50.818;6.972;2023-12-20T00:39:28;10.85;;;8.07;;
15635;SDS011;7917;50.818;6.972;2023-12-20T00:41:54;13.63;;;8.80;;
15635;SDS011;7917;50.818;6.972;2023-12-20T00:44:20;12.02;;;7.82;;
15635;SDS011;7917;50.818;6.972;2023-12-20T00:46:47;12.48;;;8.80;;
15635;SDS011;7917;50.818;6.972;2023-12-20T00:49:14;13.57;;;9.18;;
15635;SDS011;7917;50.818;6.972;2023-12-20T00:51:40;13.75;;;8.45;;
15635;SDS011;7917;50.818;6.972;2023-12-20T00:54:07;12.68;;;9.00;;
15635;SDS011;7917;50.818;6.972;2023-12-20T00:56:34;13.18;;;9.15;;
15635;SDS011;7917;50.818;6.972;2023-12-20T00:59:01;13.77;;;10.20;;
15635;SDS011;7917;50.818;6.972;2023-12-20T01:01:28;15.38;;;9.80;;
15635;SDS011;7917;50.818;6.972;2023-12-20T01:03:54;16.15;;;10.07;;
15635;SDS011;7917;50.818;6.972;2023-12-20T01:06:21;16.55;;;11.02;;
15635;SDS011;7917;50.818;6.972;2023-12-20T01:08:48;13.60;;;10.15;;
15635;SDS011;7917;50.818;6.972;2023-12-20T01:11:14;15.23;;;10.57;;
15635;SDS011;7917;50.818;6.972;2023-12-20T01:13:40;18.73;;;11.75;;
15635;SDS011;7917;50.818;6.972;2023-12-20T01:16:09;19.98;;;11.85;;
15635;SDS011;7917;50.818;6.972;2023-12-20T01:18:37;18.08;;;11.75;;
15635;SDS011;7917;50.818;6.972;2023-12-20T01:21:05;22.77;;;12.52;;
15635;SDS011;7917;50.818;6.972;2023-12-20T01:23:32;19.52;;;12.48;;
15635;SDS011;7917;50.818;6.972;2023-12-20T01:25:58;19.17;;;12.20;;
15635;SDS011;7917;50.818;6.972;2023-12-20T01:28:25;24.75;;;13.73;;
15635;SDS011;7917;50.818;6.972;2023-12-20T01:30:51;20.20;;;14.10;;
15635;SDS011;7917;50.818;6.972;2023-12-20T01:33:19;22.63;;;14.50;;
15635;SDS011;7917;50.818;6.972;2023-12-20T01:35:45;21.92;;;13.27;;
15635;SDS011;7917;50.818;6.972;2023-12-20T01:38:11;19.60;;;12.98;;
15635;SDS011;7917;50.818;6.972;2023-12-20T01:40:38;22.20;;;14.10;;
15635;SDS011;7917;50.818;6.972;2023-12-20T01:43:06;21.98;;;12.70;;
15635;SDS011;7917;50.818;6.972;2023-12-20T01:45:34;27.98;;;13.80;;
15635;SDS011;7917;50.818;6.972;2023-12-20T01:48:00;25.17;;;15.05;;
15635;SDS011;7917;50.818;6.972;2023-12-20T01:50:28;31.00;;;14.65;;
15635;SDS011;7917;50.818;6.972;2023-12-20T01:52:55;24.98;;;15.48;;
15635;SDS011;7917;50.818;6.972;2023-12-20T01:55:23;25.60;;;15.90;;
15635;SDS011;7917;50.818;6.972;2023-12-20T01:57:51;27.73;;;14.95;;
15635;SDS011;7917;50.818;6.972;2023-12-20T02:00:17;27.80;;;15.45;;
15635;SDS011;7917;50.818;6.972;2023-12-20T02:02:46;24.95;;;13.90;;
15635;SDS011;7917;50.818;6.972;2023-12-20T02:05:13;21.23;;;12.48;;
15635;SDS011;7917;50.818;6.972;2023-12-20T02:07:39;27.33;;;15.32;;
15635;SDS011;7917;50.818;6.972;2023-12-20T02:10:06;26.55;;;13.13;;
15635;SDS011;7917;50.818;6.972;2023-12-20T02:12:33;21.50;;;12.30;;
15635;SDS011;7917;50.818;6.972;2023-12-20T02:15:00;19.95;;;10.02;;
15635;SDS011;7917;50.818;6.972;2023-12-20T02:17:26;15.15;;;8.20;;
15635;SDS011;7917;50.818;6.972;2023-12-20T02:19:54;13.70;;;7.60;;
15635;SDS011;7917;50.818;6.972;2023-12-20T02:22:21;18.30;;;8.38;;
15635;SDS011;7917;50.818;6.972;2023-12-20T02:24:47;12.60;;;6.60;;
15635;SDS011;7917;50.818;6.972;2023-12-20T02:27:14;20.88;;;6.15;;
15635;SDS011;7917;50.818;6.972;2023-12-20T02:29:43;12.52;;;5.90;;
15635;SDS011;7917;50.818;6.972;2023-12-20T02:32:09;16.63;;;5.00;;
15635;SDS011;7917;50.818;6.972;2023-12-20T02:34:35;14.48;;;5.65;;
15635;SDS011;7917;50.818;6.972;2023-12-20T02:37:02;13.38;;;4.40;;
15635;SDS011;7917;50.818;6.972;2023-12-20T02:39:30;11.90;;;4.25;;
15635;SDS011;7917;50.818;6.972;2023-12-20T02:41:56;16.25;;;4.40;;
15635;SDS011;7917;50.818;6.972;2023-12-20T02:44:23;13.30;;;3.70;;
15635;SDS011;7917;50.818;6.972;2023-12-20T02:46:50;9.18;;;2.70;;
15635;SDS011;7917;50.818;6.972;2023-12-20T02:49:16;7.88;;;2.58;;
15635;SDS011;7917;50.818;6.972;2023-12-20T02:51:43;11.23;;;3.58;;
15635;SDS011;7917;50.818;6.972;2023-12-20T02:54:09;19.02;;;3.72;;
15635;SDS011;7917;50.818;6.972;2023-12-20T02:56:36;13.82;;;2.83;;
15635;SDS011;7917;50.818;6.972;2023-12-20T02:59:03;6.90;;;2.45;;
15635;SDS011;7917;50.818;6.972;2023-12-20T03:01:30;9.25;;;2.70;;
15635;SDS011;7917;50.818;6.972;2023-12-20T03:03:57;9.32;;;2.90;;
15635;SDS011;7917;50.818;6.972;2023-12-20T03:06:24;9.20;;;2.70;;
15635;SDS011;7917;50.818;6.972;2023-12-20T03:08:50;14.43;;;3.17;;
15635;SDS011;7917;50.818;6.972;2023-12-20T03:11:16;16.60;;;3.35;;
15635;SDS011;7917;50.818;6.972;2023-12-20T03:13:44;8.63;;;3.10;;
15635;SDS011;7917;50.818;6.972;2023-12-20T03:16:11;11.68;;;2.92;;
15635;SDS011;7917;50.818;6.972;2023-12-20T03:18:38;8.55;;;3.15;;
15635;SDS011;7917;50.818;6.972;2023-12-20T03:21:05;11.68;;;3.22;;
15635;SDS011;7917;50.818;6.972;2023-12-20T03:23:32;14.07;;;3.35;;
15635;SDS011;7917;50.818;6.972;2023-12-20T03:25:58;12.07;;;2.80;;
15635;SDS011;7917;50.818;6.972;2023-12-20T03:28:25;7.82;;;2.65;;
15635;SDS011;7917;50.818;6.972;2023-12-20T03:30:52;11.38;;;3.55;;
15635;SDS011;7917;50.818;6.972;2023-12-20T03:33:18;17.48;;;3.70;;
15635;SDS011;7917;50.818;6.972;2023-12-20T03:35:45;19.88;;;3.67;;
15635;SDS011;7917;50.818;6.972;2023-12-20T03:38:11;13.80;;;3.13;;
15635;SDS011;7917;50.818;6.972;2023-12-20T03:40:38;12.57;;;4.07;;
15635;SDS011;7917;50.818;6.972;2023-12-20T03:43:04;11.65;;;3.92;;
15635;SDS011;7917;50.818;6.972;2023-12-20T03:45:31;17.55;;;4.13;;
15635;SDS011;7917;50.818;6.972;2023-12-20T03:47:58;14.35;;;3.85;;
15635;SDS011;7917;50.818;6.972;2023-12-20T03:50:25;13.95;;;3.78;;
15635;SDS011;7917;50.818;6.972;2023-12-20T03:52:52;11.45;;;3.22;;
15635;SDS011;7917;50.818;6.972;2023-12-20T03:55:18;19.05;;;3.83;;
15635;SDS011;7917;50.818;6.972;2023-12-20T03:57:45;20.67;;;3.70;;
15635;SDS011;7917;50.818;6.972;2023-12-20T04:03:35;16.40;;;3.45;;
15635;SDS011;7917;50.818;6.972;2023-12-20T04:06:01;11.68;;;3.65;;
15635;SDS011;7917;50.818;6.972;2023-12-20T04:08:27;14.05;;;3.97;;
15635;SDS011;7917;50.818;6.972;2023-12-20T04:10:55;20.45;;;8.93;;
15635;SDS011;7917;50.818;6.972;2023-12-20T04:13:21;14.85;;;4.32;;
15635;SDS011;7917;50.818;6.972;2023-12-20T04:15:47;18.77;;;4.05;;
15635;SDS011;7917;50.818;6.972;2023-12-20T04:18:16;16.15;;;3.88;;
15635;SDS011;7917;50.818;6.972;2023-12-20T04:20:43;15.82;;;4.50;;
15635;SDS011;7917;50.818;6.972;2023-12-20T04:23:10;15.73;;;4.63;;
15635;SDS011;7917;50.818;6.972;2023-12-20T04:25:36;13.95;;;4.07;;
15635;SDS011;7917;50.818;6.972;2023-12-20T04:28:02;13.45;;;4.63;;
15635;SDS011;7917;50.818;6.972;2023-12-20T04:30:29;17.08;;;6.65;;
15635;SDS011;7917;50.818;6.972;2023-12-20T04:32:56;21.27;;;5.05;;
15635;SDS011;7917;50.818;6.972;2023-12-20T04:35:23;17.25;;;4.00;;
15635;SDS011;7917;50.818;6.972;2023-12-20T04:37:49;19.85;;;6.57;;
15635;SDS011;7917;50.818;6.972;2023-12-20T04:40:16;17.27;;;4.70;;
15635;SDS011;7917;50.818;6.972;2023-12-20T04:42:42;17.92;;;6.00;;
15635;SDS011;7917;50.818;6.972;2023-12-20T04:45:09;22.13;;;5.43;;
15635;SDS011;7917;50.818;6.972;2023-12-20T04:47:37;15.05;;;4.85;;
15635;SDS011;7917;50.818;6.972;2023-12-20T04:50:04;14.65;;;5.47;;
15635;SDS011;7917;50.818;6.972;2023-12-20T04:52:31;14.02;;;5.35;;
15635;SDS011;7917;50.818;6.972;2023-12-20T04:54:58;16.52;;;5.07;;
15635;SDS011;7917;50.818;6.972;2023-12-20T04:57:25;9.98;;;4.95;;
15635;SDS011;7917;50.818;6.972;2023-12-20T04:59:51;19.45;;;5.72;;
15635;SDS011;7917;50.818;6.972;2023-12-20T05:02:18;23.48;;;6.43;;
15635;SDS011;7917;50.818;6.972;2023-12-20T05:04:44;18.45;;;5.65;;
15635;SDS011;7917;50.818;6.972;2023-12-20T05:07:11;13.57;;;5.05;;
15635;SDS011;7917;50.818;6.972;2023-12-20T05:09:37;17.58;;;5.45;;
15635;SDS011;7917;50.818;6.972;2023-12-20T05:12:04;16.05;;;5.20;;
15635;SDS011;7917;50.818;6.972;2023-12-20T05:14:32;14.82;;;5.00;;
15635;SDS011;7917;50.818;6.972;2023-12-20T05:16:58;17.85;;;5.45;;
15635;SDS011;7917;50.818;6.972;2023-12-20T05:19:24;12.63;;;4.93;;
15635;SDS011;7917;50.818;6.972;2023-12-20T05:21:52;16.73;;;5.05;;
15635;SDS011;7917;50.818;6.972;2023-12-20T05:24:19;15.88;;;5.22;;
15635;SDS011;7917;50.818;6.972;2023-12-20T05:26:45;17.70;;;5.85;;
15635;SDS011;7917;50.818;6.972;2023-12-20T05:29:12;13.25;;;6.05;;
15635;SDS011;7917;50.818;6.972;2023-12-20T05:31:39;18.67;;;6.50;;
15635;SDS011;7917;50.818;6.972;2023-12-20T05:34:05;23.15;;;7.10;;
15635;SDS011;7917;50.818;6.972;2023-12-20T05:36:32;22.77;;;5.38;;
15635;SDS011;7917;50.818;6.972;2023-12-20T05:38:58;16.75;;;6.10;;
15635;SDS011;7917;50.818;6.972;2023-12-20T05:41:25;18.73;;;5.82;;
15635;SDS011;7917;50.818;6.972;2023-12-20T05:43:51;17.15;;;6.20;;
15635;SDS011;7917;50.818;6.972;2023-12-20T05:46:18;19.55;;;7.43;;
15635;SDS011;7917;50.818;6.972;2023-12-20T05:48:46;16.15;;;6.25;;
15635;SDS011;7917;50.818;6.972;2023-12-20T05:51:12;20.90;;;6.35;;
15635;SDS011;7917;50.818;6.972;2023-12-20T05:53:38;29.20;;;8.65;;
15635;SDS011;7917;50.818;6.972;2023-12-20T05:56:06;17.20;;;6.13;;
15635;SDS011;7917;50.818;6.972;2023-12-20T05:58:32;26.55;;;6.15;;
15635;SDS011;7917;50.818;6.972;2023-12-20T06:00:59;18.10;;;5.78;;
15635;SDS011;7917;50.818;6.972;2023-12-20T06:03:28;25.60;;;5.38;;
15635;SDS011;7917;50.818;6.972;2023-12-20T06:05:55;18.42;;;5.55;;
15635;SDS011;7917;50.818;6.972;2023-12-20T06:08:21;16.33;;;4.95;;
15635;SDS011;7917;50.818;6.972;2023-12-20T06:10:48;18.88;;;5.93;;
15635;SDS011;7917;50.818;6.972;2023-12-20T06:13:14;20.10;;;5.50;;
15635;SDS011;7917;50.818;6.972;2023-12-20T06:15:41;17.85;;;5.53;;
15635;SDS011;7917;50.818;6.972;2023-12-20T06:18:08;17.38;;;5.63;;
15635;SDS011;7917;50.818;6.972;2023-12-20T06:20:35;16.17;;;4.97;;
15635;SDS011;7917;50.818;6.972;2023-12-20T06:23:02;14.75;;;5.05;;
15635;SDS011;7917;50.818;6.972;2023-12-20T06:25:28;18.10;;;5.88;;
15635;SDS011;7917;50.818;6.972;2023-12-20T06:27:55;21.88;;;5.60;;
15635;SDS011;7917;50.818;6.972;2023-12-20T06:30:21;24.15;;;6.45;;
15635;SDS011;7917;50.818;6.972;2023-12-20T06:32:50;19.38;;;5.65;;
15635;SDS011;7917;50.818;6.972;2023-12-20T06:35:16;16.08;;;4.75;;
15635;SDS011;7917;50.818;6.972;2023-12-20T06:37:43;16.58;;;4.85;;
15635;SDS011;7917;50.818;6.972;2023-12-20T06:40:10;9.57;;;5.45;;
15635;SDS011;7917;50.818;6.972;2023-12-20T06:42:37;13.20;;;5.32;;
15635;SDS011;7917;50.818;6.972;2023-12-20T06:45:04;18.23;;;5.32;;
15635;SDS011;7917;50.818;6.972;2023-12-20T06:47:30;19.70;;;5.55;;
15635;SDS011;7917;50.818;6.972;2023-12-20T06:49:57;15.13;;;5.47;;
15635;SDS011;7917;50.818;6.972;2023-12-20T06:52:23;21.17;;;5.05;;
15635;SDS011;7917;50.818;6.972;2023-12-20T06:54:52;16.55;;;5.38;;
15635;SDS011;7917;50.818;6.972;2023-12-20T06:57:18;21.20;;;6.70;;
15635;SDS011;7917;50.818;6.972;2023-12-20T06:59:45;20.15;;;4.97;;
15635;SDS011;7917;50.818;6.972;2023-12-20T07:02:11;14.18;;;5.15;;
15635;SDS011;7917;50.818;6.972;2023-12-20T07:04:39;14.80;;;4.78;;
15635;SDS011;7917;50.818;6.972;2023-12-20T07:07:05;19.83;;;7.30;;
15635;SDS011;7917;50.818;6.972;2023-12-20T07:09:32;18.88;;;5.38;;
15635;SDS011;7917;50.818;6.972;2023-12-20T07:12:00;19.05;;;5.82;;
15635;SDS011;7917;50.818;6.972;2023-12-20T07:14:27;11.60;;;5.18;;
15635;SDS011;7917;50.818;6.972;2023-12-20T07:16:54;15.80;;;5.78;;
15635;SDS011;7917;50.818;6.972;2023-12-20T07:19:21;20.90;;;5.75;;
15635;SDS011;7917;50.818;6.972;2023-12-20T07:21:48;18.45;;;6.22;;
15635;SDS011;7917;50.818;6.972;2023-12-20T07:24:14;21.35;;;6.00;;
15635;SDS011;7917;50.818;6.972;2023-12-20T07:26:42;22.00;;;5.78;;
15635;SDS011;7917;50.818;6.972;2023-12-20T07:29:09;22.45;;;6.10;;
15635;SDS011;7917;50.818;6.972;2023-12-20T07:31:36;19.38;;;5.70;;
15635;SDS011;7917;50.818;6.972;2023-12-20T07:34:03;18.70;;;5.63;;
15635;SDS011;7917;50.818;6.972;2023-12-20T07:36:30;17.65;;;5.50;;
15635;SDS011;7917;50.818;6.972;2023-12-20T07:38:57;16.67;;;5.70;;
15635;SDS011;7917;50.818;6.972;2023-12-20T07:41:23;19.65;;;5.00;;
15635;SDS011;7917;50.818;6.972;2023-12-20T07:43:51;19.30;;;4.82;;
15635;SDS011;7917;50.818;6.972;2023-12-20T07:46:20;17.00;;;4.82;;
15635;SDS011;7917;50.818;6.972;2023-12-20T07:48:48;21.58;;;5.40;;
15635;SDS011;7917;50.818;6.972;2023-12-20T07:51:16;17.73;;;4.93;;
15635;SDS011;7917;50.818;6.972;2023-12-20T07:53:42;15.48;;;4.75;;
15635;SDS011;7917;50.818;6.972;2023-12-20T07:56:15;18.85;;;5.75;;
15635;SDS011;7917;50.818;6.972;2023-12-20T07:58:42;24.25;;;4.68;;
15635;SDS011;7917;50.818;6.972;2023-12-20T08:01:08;12.02;;;4.25;;
15635;SDS011;7917;50.818;6.972;2023-12-20T08:03:36;14.40;;;4.25;;
15635;SDS011;7917;50.818;6.972;2023-12-20T08:06:03;13.32;;;4.40;;
15635;SDS011;7917;50.818;6.972;2023-12-20T08:08:30;15.77;;;4.93;;
15635;SDS011;7917;50.818;6.972;2023-12-20T08:10:56;16.13;;;4.82;;
15635;SDS011;7917;50.818;6.972;2023-12-20T08:13:26;18.52;;;4.30;;
15635;SDS011;7917;50.818;6.972;2023-12-20T08:15:52;16.35;;;4.75;;
15635;SDS011;7917;50.818;6.972;2023-12-20T08:18:19;12.57;;;4.60;;
15635;SDS011;7917;50.818;6.972;2023-12-20T08:20:47;17.73;;;4.57;;
15635;SDS011;7917;50.818;6.972;2023-12-20T08:23:14;15.70;;;5.28;;
15635;SDS011;7917;50.818;6.972;2023-12-20T08:25:41;18.15;;;4.85;;
15635;SDS011;7917;50.818;6.972;2023-12-20T08:28:08;11.13;;;4.13;;
15635;SDS011;7917;50.818;6.972;2023-12-20T08:30:34;14.02;;;4.82;;
15635;SDS011;7917;50.818;6.972;2023-12-20T08:33:01;15.20;;;4.57;;
15635;SDS011;7917;50.818;6.972;2023-12-20T08:35:28;13.75;;;5.43;;
15635;SDS011;7917;50.818;6.972;2023-12-20T08:37:55;21.40;;;4.70;;
15635;SDS011;7917;50.818;6.972;2023-12-20T08:40:22;16.17;;;4.35;;
15635;SDS011;7917;50.818;6.972;2023-12-20T08:42:49;17.88;;;4.63;;
15635;SDS011;7917;50.818;6.972;2023-12-20T08:45:16;17.23;;;4.43;;
15635;SDS011;7917;50.818;6.972;2023-12-20T08:47:42;20.92;;;4.35;;
15635;SDS011;7917;50.818;6.972;2023-12-20T08:50:10;15.25;;;5.15;;
15635;SDS011;7917;50.818;6.972;2023-12-20T08:52:37;17.13;;;4.00;;
15635;SDS011;7917;50.818;6.972;2023-12-20T08:55:05;13.20;;;4.20;;
15635;SDS011;7917;50.818;6.972;2023-12-20T08:57:32;16.25;;;5.95;;
15635;SDS011;7917;50.818;6.972;2023-12-20T08:59:59;17.83;;;5.47;;
15635;SDS011;7917;50.818;6.972;2023-12-20T09:02:27;20.02;;;4.45;;
15635;SDS011;7917;50.818;6.972;2023-12-20T09:04:54;16.52;;;5.00;;
15635;SDS011;7917;50.818;6.972;2023-12-20T09:07:21;15.02;;;4.25;;
15635;SDS011;7917;50.818;6.972;2023-12-20T09:09:48;16.25;;;3.60;;
15635;SDS011;7917;50.818;6.972;2023-12-20T09:12:17;19.77;;;4.05;;
15635;SDS011;7917;50.818;6.972;2023-12-20T09:14:44;13.90;;;3.60;;
15635;SDS011;7917;50.818;6.972;2023-12-20T09:17:11;19.02;;;5.15;;
15635;SDS011;7917;50.818;6.972;2023-12-20T09:19:38;13.90;;;3.65;;
15635;SDS011;7917;50.818;6.972;2023-12-20T09:22:05;13.95;;;4.32;;
15635;SDS011;7917;50.818;6.972;2023-12-20T09:24:32;16.42;;;4.10;;
15635;SDS011;7917;50.818;6.972;2023-12-20T09:26:58;17.08;;;4.22;;
15635;SDS011;7917;50.818;6.972;2023-12-20T09:29:26;15.05;;;4.45;;
15635;SDS011;7917;50.818;6.972;2023-12-20T09:31:52;9.38;;;3.63;;
15635;SDS011;7917;50.818;6.972;2023-12-20T09:34:19;11.73;;;4.32;;
15635;SDS011;7917;50.818;6.972;2023-12-20T09:36:47;15.45;;;5.45;;
15635;SDS011;7917;50.818;6.972;2023-12-20T09:39:14;14.00;;;4.78;;
15635;SDS011;7917;50.818;6.972;2023-12-20T09:41:44;18.25;;;4.18;;
15635;SDS011;7917;50.818;6.972;2023-12-20T09:44:15;13.25;;;4.28;;
15635;SDS011;7917;50.818;6.972;2023-12-20T09:46:44;12.52;;;4.15;;
15635;SDS011;7917;50.818;6.972;2023-12-20T09:49:11;13.85;;;4.00;;
15635;SDS011;7917;50.818;6.972;2023-12-20T09:51:39;13.52;;;4.40;;
15635;SDS011;7917;50.818;6.972;2023-12-20T09:54:12;12.90;;;4.55;;
15635;SDS011;7917;50.818;6.972;2023-12-20T09:56:42;12.77;;;4.55;;
15635;SDS011;7917;50.818;6.972;2023-12-20T09:59:09;16.30;;;3.95;;
15635;SDS011;7917;50.818;6.972;2023-12-20T10:01:36;11.68;;;4.53;;
15635;SDS011;7917;50.818;6.972;2023-12-20T10:04:07;15.45;;;4.53;;
15635;SDS011;7917;50.818;6.972;2023-12-20T10:06:34;13.05;;;3.50;;
15635;SDS011;7917;50.818;6.972;2023-12-20T10:09:01;14.43;;;3.95;;
15635;SDS011;7917;50.818;6.972;2023-12-20T10:11:29;15.57;;;4.78;;
15635;SDS011;7917;50.818;6.972;2023-12-20T10:13:58;24.75;;;3.85;;
15635;SDS011;7917;50.818;6.972;2023-12-20T10:16:26;12.55;;;3.53;;
15635;SDS011;7917;50.818;6.972;2023-12-20T10:18:54;12.30;;;3.55;;
15635;SDS011;7917;50.818;6.972;2023-12-20T10:21:21;10.35;;;3.72;;
15635;SDS011;7917;50.818;6.972;2023-12-20T10:23:49;13.05;;;3.15;;
15635;SDS011;7917;50.818;6.972;2023-12-20T10:26:19;14.20;;;3.63;;
15635;SDS011;7917;50.818;6.972;2023-12-20T10:28:49;19.02;;;3.83;;
15635;SDS011;7917;50.818;6.972;2023-12-20T10:31:27;9.48;;;2.78;;
15635;SDS011;7917;50.818;6.972;2023-12-20T10:33:55;9.20;;;3.83;;
15635;SDS011;7917;50.818;6.972;2023-12-20T10:36:24;15.43;;;4.20;;
15635;SDS011;7917;50.818;6.972;2023-12-20T10:38:52;9.65;;;3.28;;
15635;SDS011;7917;50.818;6.972;2023-12-20T10:41:20;12.15;;;3.33;;
15635;SDS011;7917;50.818;6.972;2023-12-20T10:43:50;11.20;;;3.28;;
15635;SDS011;7917;50.818;6.972;2023-12-20T10:46:17;15.60;;;3.22;;
15635;SDS011;7917;50.818;6.972;2023-12-20T10:48:46;14.52;;;3.72;;
15635;SDS011;7917;50.818;6.972;2023-12-20T10:51:14;9.80;;;3.20;;
15635;SDS011;7917;50.818;6.972;2023-12-20T10:53:44;12.05;;;3.67;;
15635;SDS011;7917;50.818;6.972;2023-12-20T10:56:15;10.15;;;4.35;;
15635;SDS011;7917;50.818;6.972;2023-12-20T10:58:42;16.45;;;4.22;;
15635;SDS011;7917;50.818;6.972;2023-12-20T11:01:09;10.35;;;3.33;;
15635;SDS011;7917;50.818;6.972;2023-12-20T11:03:38;14.52;;;3.88;;
15635;SDS011;7917;50.818;6.972;2023-12-20T11:06:11;9.93;;;3.72;;
15635;SDS011;7917;50.818;6.972;2023-12-20T11:08:52;13.27;;;3.42;;
15635;SDS011;7917;50.818;6.972;2023-12-20T11:11:26;12.32;;;3.40;;
15635;SDS011;7917;50.818;6.972;2023-12-20T11:14:00;8.43;;;3.67;;
15635;SDS011;7917;50.818;6.972;2023-12-20T11:16:31;10.55;;;3.83;;
15635;SDS011;7917;50.818;6.972;2023-12-20T11:18:57;10.90;;;3.33;;
15635;SDS011;7917;50.818;6.972;2023-12-20T11:21:30;13.55;;;3.88;;
15635;SDS011;7917;50.818;6.972;2023-12-20T11:23:57;11.70;;;3.63;;
15635;SDS011;7917;50.818;6.972;2023-12-20T11:26:26;12.82;;;3.80;;
15635;SDS011;7917;50.818;6.972;2023-12-20T11:28:54;10.88;;;4.40;;
15635;SDS011;7917;50.818;6.972;2023-12-20T11:31:42;10.18;;;3.30;;
15635;SDS011;7917;50.818;6.972;2023-12-20T11:34:12;15.65;;;3.40;;
15635;SDS011;7917;50.818;6.972;2023-12-20T11:36:40;13.52;;;4.18;;
15635;SDS011;7917;50.818;6.972;2023-12-20T11:39:07;15.15;;;4.05;;
15635;SDS011;7917;50.818;6.972;2023-12-20T11:41:36;12.23;;;3.90;;
15635;SDS011;7917;50.818;6.972;2023-12-20T11:44:04;14.90;;;3.50;;
15635;SDS011;7917;50.818;6.972;2023-12-20T11:46:31;11.77;;;4.18;;
15635;SDS011;7917;50.818;6.972;2023-12-20T11:48:59;14.02;;;4.50;;
15635;SDS011;7917;50.818;6.972;2023-12-20T11:51:28;9.43;;;3.42;;
15635;SDS011;7917;50.818;6.972;2023-12-20T11:53:54;10.30;;;4.07;;
15635;SDS011;7917;50.818;6.972;2023-12-20T11:56:23;12.65;;;3.70;;
15635;SDS011;7917;50.818;6.972;2023-12-20T11:58:49;8.73;;;3.50;;
15635;SDS011;7917;50.818;6.972;2023-12-20T12:01:16;17.98;;;4.50;;
15635;SDS011;7917;50.818;6.972;2023-12-20T12:03:46;15.05;;;3.70;;
15635;SDS011;7917;50.818;6.972;2023-12-20T12:06:12;10.77;;;3.50;;
15635;SDS011;7917;50.818;6.972;2023-12-20T12:08:39;14.15;;;4.18;;
15635;SDS011;7917;50.818;6.972;2023-12-20T12:11:06;14.57;;;3.88;;
15635;SDS011;7917;50.818;6.972;2023-12-20T12:13:33;10.43;;;3.75;;
15635;SDS011;7917;50.818;6.972;2023-12-20T12:16:00;16.15;;;3.42;;
15635;SDS011;7917;50.818;6.972;2023-12-20T12:18:28;9.95;;;4.40;;
15635;SDS011;7917;50.818;6.972;2023-12-20T12:20:59;14.88;;;3.65;;
15635;SDS011;7917;50.818;6.972;2023-12-20T12:23:27;16.73;;;4.13;;
15635;SDS011;7917;50.818;6.972;2023-12-20T12:25:55;13.57;;;3.42;;
15635;SDS011;7917;50.818;6.972;2023-12-20T12:31:45;13.15;;;3.83;;
15635;SDS011;7917;50.818;6.972;2023-12-20T12:34:12;15.52;;;4.22;;
15635;SDS011;7917;50.818;6.972;2023-12-20T12:36:40;10.13;;;3.40;;
15635;SDS011;7917;50.818;6.972;2023-12-20T12:39:07;12.10;;;3.60;;
15635;SDS011;7917;50.818;6.972;2023-12-20T12:41:33;12.98;;;4.10;;
15635;SDS011;7917;50.818;6.972;2023-12-20T12:44:01;11.48;;;3.83;;
15635;SDS011;7917;50.818;6.972;2023-12-20T12:46:29;15.60;;;4.43;;
15635;SDS011;7917;50.818;6.972;2023-12-20T12:48:57;13.90;;;4.25;;
15635;SDS011;7917;50.818;6.972;2023-12-20T12:51:24;12.70;;;4.20;;
15635;SDS011;7917;50.818;6.972;2023-12-20T12:53:50;12.05;;;3.55;;
15635;SDS011;7917;50.818;6.972;2023-12-20T12:56:18;14.05;;;4.25;;
15635;SDS011;7917;50.818;6.972;2023-12-20T12:58:45;10.57;;;3.53;;
15635;SDS011;7917;50.818;6.972;2023-12-20T13:01:12;15.98;;;5.53;;
15635;SDS011;7917;50.818;6.972;2023-12-20T13:03:43;10.60;;;4.30;;
15635;SDS011;7917;50.818;6.972;2023-12-20T13:06:11;7.40;;;4.03;;
15635;SDS011;7917;50.818;6.972;2023-12-20T13:08:38;15.27;;;3.67;;
15635;SDS011;7917;50.818;6.972;2023-12-20T13:11:05;12.52;;;4.03;;
15635;SDS011;7917;50.818;6.972;2023-12-20T13:13:32;17.42;;;5.43;;
15635;SDS011;7917;50.818;6.972;2023-12-20T13:15:59;13.70;;;4.35;;
15635;SDS011;7917;50.818;6.972;2023-12-20T13:18:26;14.52;;;3.92;;
15635;SDS011;7917;50.818;6.972;2023-12-20T13:20:53;17.40;;;5.13;;
15635;SDS011;7917;50.818;6.972;2023-12-20T13:23:21;13.77;;;4.35;;
15635;SDS011;7917;50.818;6.972;2023-12-20T13:25:48;11.98;;;4.47;;
15635;SDS011;7917;50.818;6.972;2023-12-20T13:28:15;14.15;;;5.45;;
15635;SDS011;7917;50.818;6.972;2023-12-20T13:30:44;12.20;;;4.68;;
15635;SDS011;7917;50.818;6.972;2023-12-20T13:33:15;13.70;;;4.63;;
15635;SDS011;7917;50.818;6.972;2023-12-20T13:35:42;12.43;;;5.00;;
15635;SDS011;7917;50.818;6.972;2023-12-20T13:38:09;14.10;;;5.00;;
15635;SDS011;7917;50.818;6.972;2023-12-20T13:40:39;14.25;;;5.28;;
15635;SDS011;7917;50.818;6.972;2023-12-20T13:43:06;21.05;;;5.13;;
15635;SDS011;7917;50.818;6.972;2023-12-20T13:45:33;13.35;;;4.68;;
15635;SDS011;7917;50.818;6.972;2023-12-20T13:48:03;25.95;;;6.60;;
15635;SDS011;7917;50.818;6.972;2023-12-20T13:50:31;20.20;;;5.07;;
15635;SDS011;7917;50.818;6.972;2023-12-20T13:52:58;13.82;;;4.88;;
15635;SDS011;7917;50.818;6.972;2023-12-20T13:55:26;13.95;;;4.78;;
15635;SDS011;7917;50.818;6.972;2023-12-20T13:57:54;12.27;;;5.07;;
15635;SDS011;7917;50.818;6.972;2023-12-20T14:00:22;14.60;;;4.90;;
15635;SDS011;7917;50.818;6.972;2023-12-20T14:02:49;12.00;;;4.75;;
15635;SDS011;7917;50.818;6.972;2023-12-20T14:05:16;15.90;;;5.05;;
15635;SDS011;7917;50.818;6.972;2023-12-20T14:07:43;12.02;;;4.40;;
15635;SDS011;7917;50.818;6.972;2023-12-20T14:10:11;13.07;;;4.22;;
15635;SDS011;7917;50.818;6.972;2023-12-20T14:12:39;11.40;;;4.72;;
15635;SDS011;7917;50.818;6.972;2023-12-20T14:15:07;10.65;;;3.80;;
15635;SDS011;7917;50.818;6.972;2023-12-20T14:17:36;9.15;;;4.53;;
15635;SDS011;7917;50.818;6.972;2023-12-20T14:20:04;11.48;;;4.65;;
15635;SDS011;7917;50.818;6.972;2023-12-20T14:22:32;15.68;;;4.32;;
15635;SDS011;7917;50.818;6.972;2023-12-20T14:25:01;9.43;;;4.50;;
15635;SDS011;7917;50.818;6.972;2023-12-20T14:27:28;9.48;;;3.60;;
15635;SDS011;7917;50.818;6.972;2023-12-20T14:29:55;12.05;;;3.67;;
15635;SDS011;7917;50.818;6.972;2023-12-20T14:32:23;7.88;;;3.38;;
15635;SDS011;7917;50.818;6.972;2023-12-20T14:34:52;13.20;;;3.80;;
15635;SDS011;7917;50.818;6.972;2023-12-20T14:37:20;9.32;;;3.35;;
15635;SDS011;7917;50.818;6.972;2023-12-20T14:39:47;12.38;;;3.33;;
15635;SDS011;7917;50.818;6.972;2023-12-20T14:42:14;5.93;;;3.40;;
15635;SDS011;7917;50.818;6.972;2023-12-20T14:44:41;6.88;;;3.33;;
15635;SDS011;7917;50.818;6.972;2023-12-20T14:47:09;8.95;;;2.95;;
15635;SDS011;7917;50.818;6.972;2023-12-20T14:49:37;10.07;;;3.90;;
15635;SDS011;7917;50.818;6.972;2023-12-20T14:52:04;14.00;;;3.13;;
15635;SDS011;7917;50.818;6.972;2023-12-20T14:54:32;8.27;;;2.80;;